createdAt,value
2022-12-15T00:00:27.303Z,76.55
2022-12-15T00:02:53.901Z,76.05
2022-12-15T00:05:20.296Z,75.97
2022-12-15T00:07:46.870Z,75.75
2022-12-15T00:10:13.551Z,75.87
2022-12-15T00:12:40.183Z,76.40
2022-12-15T00:15:07.611Z,76.43
2022-12-15T00:17:33.932Z,76.74
2022-12-15T00:20:00.326Z,76.38
2022-12-15T00:22:27.065Z,76.47
2022-12-15T00:24:53.477Z,76.58
2022-12-15T00:27:20.283Z,76.75
2022-12-15T00:29:46.801Z,76.48
2022-12-15T00:32:13.235Z,76.21
2022-12-15T00:34:39.542Z,76.31
2022-12-15T00:37:06.013Z,77.22
2022-12-15T00:39:32.397Z,77.52
2022-12-15T00:41:58.708Z,77.63
2022-12-15T00:44:25.100Z,77.61
2022-12-15T00:46:51.689Z,77.48
2022-12-15T00:49:18.291Z,76.97
2022-12-15T00:51:44.822Z,77.42
2022-12-15T00:54:17.771Z,77.44
2022-12-15T00:56:44.478Z,77.81
2022-12-15T00:59:11.584Z,77.75
2022-12-15T01:01:38.203Z,77.82
2022-12-15T01:04:05.026Z,77.50
2022-12-15T01:06:31.525Z,77.13
2022-12-15T01:08:58.182Z,76.48
2022-12-15T01:11:24.711Z,76.44
2022-12-15T01:13:51.002Z,76.28
2022-12-15T01:16:17.556Z,76.36
2022-12-15T01:18:44.049Z,76.33
2022-12-15T01:21:16.143Z,75.59
2022-12-15T01:23:42.850Z,75.86
2022-12-15T01:26:09.308Z,75.43
2022-12-15T01:28:35.799Z,75.65
2022-12-15T01:31:02.238Z,75.83
2022-12-15T01:33:43.996Z,75.32
2022-12-15T01:36:11.003Z,75.81
2022-12-15T01:38:37.533Z,76.60
2022-12-15T01:41:10.065Z,77.19
2022-12-15T01:43:39.056Z,77.19
2022-12-15T01:46:17.209Z,77.23
2022-12-15T01:48:57.448Z,77.54
2022-12-15T01:51:28.475Z,77.46
2022-12-15T01:54:06.501Z,77.12
2022-12-15T01:56:41.937Z,76.97
2022-12-15T01:59:13.657Z,76.56
2022-12-15T02:01:40.155Z,76.41
2022-12-15T02:04:07.095Z,76.59
2022-12-15T02:06:34.308Z,76.34
2022-12-15T02:09:01.333Z,76.63
2022-12-15T02:11:45.767Z,77.24
2022-12-15T02:14:20.338Z,76.73
2022-12-15T02:17:02.256Z,76.57
2022-12-15T02:19:59.568Z,77.13
2022-12-15T02:22:51.827Z,77.42
2022-12-15T02:25:34.273Z,77.44
2022-12-15T02:28:13.346Z,77.72
2022-12-15T02:31:04.779Z,77.41
2022-12-15T02:33:33.631Z,77.18
2022-12-15T02:36:15.342Z,77.12
2022-12-15T02:38:41.704Z,76.60
2022-12-15T02:41:37.835Z,77.15
2022-12-15T02:44:29.201Z,77.16
2022-12-15T02:47:16.874Z,77.39
2022-12-15T02:50:02.555Z,76.75
2022-12-15T02:53:08.630Z,76.81
2022-12-15T02:55:43.258Z,76.99
2022-12-15T02:58:40.221Z,77.51
2022-12-15T03:01:18.997Z,77.29
2022-12-15T03:03:47.572Z,77.40
2022-12-15T03:06:16.114Z,76.69
2022-12-15T03:08:42.566Z,76.58
2022-12-15T03:11:09.534Z,76.31
2022-12-15T03:13:36.028Z,76.66
2022-12-15T03:16:02.463Z,76.52
2022-12-15T03:18:28.873Z,76.38
2022-12-15T03:20:55.420Z,76.25
2022-12-15T03:23:21.723Z,76.84
2022-12-15T03:25:49.857Z,76.92
2022-12-15T03:28:16.967Z,76.73
2022-12-15T03:30:43.412Z,76.77
2022-12-15T03:33:11.454Z,76.43
2022-12-15T03:35:37.807Z,75.92
2022-12-15T03:38:04.290Z,76.09
2022-12-15T03:40:30.666Z,76.23
2022-12-15T03:42:57.136Z,76.52
2022-12-15T03:45:26.444Z,76.55
2022-12-15T03:47:53.862Z,76.75
2022-12-15T03:50:23.549Z,77.03
2022-12-15T03:52:54.676Z,77.29
2022-12-15T03:55:22.196Z,77.51
2022-12-15T03:57:48.820Z,77.43
2022-12-15T04:00:16.363Z,77.25
2022-12-15T04:02:43.064Z,76.53
2022-12-15T04:05:14.834Z,76.19
2022-12-15T04:07:41.464Z,76.47
2022-12-15T04:10:08.187Z,76.72
2022-12-15T04:12:34.610Z,76.38
2022-12-15T04:15:01.011Z,75.48
2022-12-15T04:17:27.652Z,75.91
2022-12-15T04:19:53.997Z,75.40
2022-12-15T04:22:20.529Z,75.30
2022-12-15T04:24:47.213Z,75.48
2022-12-15T04:27:13.533Z,75.58
2022-12-15T04:29:39.842Z,75.45
2022-12-15T04:32:06.266Z,76.34
2022-12-15T04:34:32.597Z,76.74
2022-12-15T04:36:59.347Z,77.06
2022-12-15T04:39:25.750Z,76.89
2022-12-15T04:41:54.576Z,77.33
2022-12-15T04:44:21.303Z,77.09
2022-12-15T04:46:47.836Z,76.97
2022-12-15T04:49:14.206Z,76.79
2022-12-15T04:51:40.597Z,76.32
2022-12-15T04:54:07.305Z,76.13
2022-12-15T04:56:33.935Z,76.21
2022-12-15T04:59:00.986Z,75.90
2022-12-15T05:01:27.512Z,75.48
2022-12-15T05:03:54.007Z,75.40
2022-12-15T05:06:20.392Z,75.27
2022-12-15T05:08:46.791Z,75.53
2022-12-15T05:11:16.454Z,75.21
2022-12-15T05:13:42.856Z,76.10
2022-12-15T05:16:09.304Z,76.96
2022-12-15T05:18:35.654Z,76.86
2022-12-15T05:21:02.021Z,77.10
2022-12-15T05:23:28.704Z,77.13
2022-12-15T05:25:55.327Z,77.33
2022-12-15T05:28:21.661Z,77.66
2022-12-15T05:30:48.152Z,76.88
2022-12-15T05:33:14.988Z,76.40
2022-12-15T05:35:41.310Z,76.29
2022-12-15T05:38:07.728Z,75.94
2022-12-15T05:40:34.345Z,75.37
2022-12-15T05:43:00.935Z,75.54
2022-12-15T05:45:28.404Z,75.46
2022-12-15T05:47:55.294Z,75.63
2022-12-15T05:50:23.022Z,76.23
2022-12-15T05:52:49.729Z,76.92
2022-12-15T05:55:17.446Z,76.88
2022-12-15T05:57:43.846Z,76.88
2022-12-15T06:00:10.700Z,77.09
2022-12-15T06:02:37.333Z,76.97
2022-12-15T06:05:04.109Z,77.00
2022-12-15T06:07:30.769Z,76.32
2022-12-15T06:09:57.202Z,75.94
2022-12-15T06:12:23.514Z,75.70
2022-12-15T06:14:49.874Z,75.26
2022-12-15T06:17:16.708Z,75.29
2022-12-15T06:19:43.351Z,75.44
2022-12-15T06:22:09.650Z,75.33
2022-12-15T06:24:36.169Z,75.34
2022-12-15T06:27:02.629Z,75.32
2022-12-15T06:29:28.944Z,74.89
2022-12-15T06:31:55.639Z,75.28
2022-12-15T06:34:22.035Z,75.49
2022-12-15T06:36:48.355Z,75.65
2022-12-15T06:39:16.238Z,75.67
2022-12-15T06:41:43.765Z,75.09
2022-12-15T06:44:14.987Z,75.17
2022-12-15T06:46:41.841Z,74.76
2022-12-15T06:49:08.705Z,74.90
2022-12-15T06:51:35.119Z,74.64
2022-12-15T06:54:01.806Z,74.67
2022-12-15T06:56:34.863Z,74.61
2022-12-15T06:59:03.286Z,74.36
2022-12-15T07:01:30.999Z,74.36
2022-12-15T07:03:58.673Z,74.57
2022-12-15T07:06:25.886Z,75.23
2022-12-15T07:08:53.933Z,75.48
2022-12-15T07:11:21.686Z,75.66
2022-12-15T07:13:53.353Z,75.74
2022-12-15T07:16:21.316Z,75.75
2022-12-15T07:18:48.005Z,75.73
2022-12-15T07:21:14.464Z,75.79
2022-12-15T07:23:57.469Z,75.83
2022-12-15T07:26:25.373Z,76.11
2022-12-15T07:28:51.820Z,75.67
2022-12-15T07:31:18.302Z,75.57
2022-12-15T07:33:45.005Z,75.63
2022-12-15T07:36:11.890Z,74.88
2022-12-15T07:38:38.684Z,74.41
2022-12-15T07:41:06.992Z,74.16
2022-12-15T07:43:34.236Z,74.66
2022-12-15T07:46:01.313Z,74.77
2022-12-15T07:48:28.082Z,74.54
2022-12-15T07:50:54.712Z,74.62
2022-12-15T07:53:21.232Z,74.31
2022-12-15T07:56:06.931Z,74.22
2022-12-15T07:58:35.018Z,74.01
2022-12-15T08:01:05.195Z,73.76
2022-12-15T08:03:33.335Z,73.65
2022-12-15T08:06:07.537Z,74.03
2022-12-15T08:08:35.026Z,74.12
2022-12-15T08:11:10.730Z,74.93
2022-12-15T08:16:24.522Z,74.96
2022-12-15T08:18:51.086Z,74.77
2022-12-15T08:21:17.715Z,74.92
2022-12-15T08:23:45.014Z,74.72
2022-12-15T08:26:14.480Z,75.00
2022-12-15T08:28:41.906Z,74.88
2022-12-15T08:31:11.351Z,75.13
2022-12-15T08:33:38.946Z,75.17
2022-12-15T08:36:09.242Z,75.01
2022-12-15T08:38:37.165Z,75.11
2022-12-15T08:41:09.381Z,75.12
2022-12-15T08:43:41.189Z,75.10
2022-12-15T08:46:12.651Z,74.87
2022-12-15T08:48:39.437Z,74.62
2022-12-15T08:51:06.179Z,74.35
2022-12-15T08:53:32.784Z,74.53
2022-12-15T08:56:09.172Z,74.72
2022-12-15T08:58:36.304Z,74.46
2022-12-15T09:01:05.059Z,74.54
2022-12-15T09:03:32.042Z,74.64
2022-12-15T09:06:03.691Z,74.47
2022-12-15T09:08:30.401Z,74.89
2022-12-15T09:10:58.273Z,72.70
2022-12-15T09:13:25.187Z,72.38
2022-12-15T09:16:14.500Z,72.47
2022-12-15T09:18:45.968Z,71.47
2022-12-15T09:21:13.459Z,70.22
2022-12-15T09:23:40.699Z,68.75
2022-12-15T09:26:12.659Z,67.45
2022-12-15T09:28:39.561Z,66.99
2022-12-15T09:31:08.798Z,66.27
2022-12-15T09:33:35.849Z,66.79
2022-12-15T09:36:03.079Z,67.28
2022-12-15T09:38:29.634Z,67.60
2022-12-15T09:40:56.523Z,67.29
2022-12-15T09:43:46.460Z,67.59
2022-12-15T09:46:49.958Z,68.01
2022-12-15T09:49:37.914Z,67.82
2022-12-15T09:52:11.471Z,67.41
2022-12-15T09:54:38.687Z,67.00
2022-12-15T09:57:11.926Z,66.84
2022-12-15T09:59:53.136Z,66.59
2022-12-15T10:02:42.549Z,67.31
2022-12-15T10:08:15.419Z,67.46
2022-12-15T10:11:05.340Z,67.13
2022-12-15T10:14:02.612Z,65.43
2022-12-15T10:16:34.925Z,62.47
2022-12-15T10:19:29.374Z,60.97
2022-12-15T10:21:58.054Z,61.12
2022-12-15T10:25:07.443Z,59.69
2022-12-15T10:27:49.643Z,56.53
2022-12-15T10:30:20.551Z,58.20
2022-12-15T10:33:02.700Z,57.42
2022-12-15T10:35:34.592Z,56.44
2022-12-15T10:38:04.388Z,55.43
2022-12-15T10:40:45.480Z,54.66
2022-12-15T10:43:35.687Z,52.37
2022-12-15T10:46:14.993Z,50.65
2022-12-15T10:48:48.648Z,45.96
2022-12-15T10:51:32.532Z,48.15
2022-12-15T10:54:01.829Z,48.53
2022-12-15T10:56:33.539Z,47.98
2022-12-15T10:59:03.646Z,47.53
2022-12-15T11:01:34.245Z,47.41
2022-12-15T11:04:00.948Z,46.34
2022-12-15T11:06:31.463Z,46.46
2022-12-15T11:09:09.844Z,44.37
2022-12-15T11:11:47.076Z,44.80
2022-12-15T11:14:19.524Z,45.96
2022-12-15T11:16:50.112Z,45.64
2022-12-15T11:19:28.416Z,43.45
2022-12-15T11:22:01.314Z,43.53
2022-12-15T11:24:54.547Z,43.85
2022-12-15T11:27:35.084Z,43.81
2022-12-15T11:30:03.980Z,42.87
2022-12-15T11:32:36.013Z,44.02
2022-12-15T11:35:03.914Z,44.32
2022-12-15T11:37:36.906Z,44.26
2022-12-15T11:40:06.557Z,43.76
2022-12-15T11:42:51.658Z,44.55
2022-12-15T11:45:22.353Z,45.16
2022-12-15T11:48:20.447Z,44.83
2022-12-15T11:51:05.737Z,45.90
2022-12-15T11:54:09.799Z,46.28
2022-12-15T11:56:42.550Z,47.85
2022-12-15T11:59:24.359Z,48.07
2022-12-15T12:02:15.625Z,48.38
2022-12-15T12:05:03.879Z,48.42
2022-12-15T12:07:55.136Z,48.77
2022-12-15T12:10:42.918Z,49.75
2022-12-15T12:13:29.692Z,50.35
2022-12-15T12:16:19.531Z,51.43
2022-12-15T12:18:54.766Z,52.22
2022-12-15T12:21:26.934Z,53.35
2022-12-15T12:24:06.056Z,54.14
2022-12-15T12:26:41.052Z,53.41
2022-12-15T12:29:32.208Z,52.20
2022-12-15T12:32:10.517Z,53.37
2022-12-15T12:34:51.456Z,53.29
2022-12-15T12:37:17.922Z,54.65
2022-12-15T12:39:44.983Z,54.96
2022-12-15T12:42:25.377Z,54.76
2022-12-15T12:44:51.917Z,53.36
2022-12-15T12:47:24.690Z,52.51
2022-12-15T12:50:02.585Z,52.05
2022-12-15T12:52:35.337Z,52.29
2022-12-15T12:55:27.861Z,50.98
2022-12-15T12:57:55.266Z,49.53
2022-12-15T13:00:29.400Z,48.89
2022-12-15T13:03:14.796Z,48.01
2022-12-15T13:05:42.390Z,47.52
2022-12-15T13:08:08.945Z,48.14
2022-12-15T13:10:47.567Z,48.95
2022-12-15T13:13:29.597Z,48.97
2022-12-15T13:16:08.753Z,48.89
2022-12-15T13:19:14.255Z,49.31
2022-12-15T13:21:43.816Z,49.97
2022-12-15T13:24:31.452Z,51.01
2022-12-15T13:27:10.046Z,51.68
2022-12-15T13:29:53.641Z,51.90
2022-12-15T13:32:32.314Z,51.96
2022-12-15T13:35:22.643Z,51.69
2022-12-15T13:38:01.212Z,53.19
2022-12-15T13:40:50.680Z,54.78
2022-12-15T13:43:26.526Z,55.92
2022-12-15T13:45:59.779Z,57.33
2022-12-15T13:48:41.332Z,57.77
2022-12-15T13:51:34.080Z,57.82
2022-12-15T13:54:14.693Z,58.35
2022-12-15T13:57:00.681Z,58.97
2022-12-15T13:59:32.974Z,59.97
2022-12-15T14:02:00.217Z,59.76
2022-12-15T14:04:27.036Z,58.73
2022-12-15T14:06:54.546Z,57.97
2022-12-15T14:09:37.175Z,56.77
2022-12-15T14:12:07.618Z,56.27
2022-12-15T14:14:38.247Z,56.94
2022-12-15T14:17:08.907Z,58.25
2022-12-15T14:19:46.535Z,58.57
2022-12-15T14:22:29.967Z,59.75
2022-12-15T14:25:03.363Z,59.87
2022-12-15T14:27:31.887Z,60.46
2022-12-15T14:30:14.521Z,61.80
2022-12-15T14:32:43.057Z,62.59
2022-12-15T14:35:24.489Z,62.82
2022-12-15T14:37:52.068Z,63.25
2022-12-15T14:40:24.949Z,64.31
2022-12-15T14:42:54.972Z,64.61
2022-12-15T14:45:26.936Z,64.94
2022-12-15T14:48:30.336Z,65.47
2022-12-15T14:50:48.526Z,66.11
2022-12-15T14:53:18.247Z,66.43
2022-12-15T14:55:44.721Z,66.63
2022-12-15T14:58:29.931Z,66.79
2022-12-15T15:00:58.730Z,67.51
2022-12-15T15:03:12.307Z,67.55
2022-12-15T15:03:36.152Z,67.90
2022-12-15T15:06:11.681Z,68.24
2022-12-15T15:08:50.507Z,68.36
2022-12-15T15:11:24.035Z,68.80
2022-12-15T15:13:56.169Z,69.12
2022-12-15T15:16:22.927Z,69.12
2022-12-15T15:18:55.959Z,69.59
2022-12-15T15:21:26.172Z,69.99
2022-12-15T15:24:20.408Z,69.84
2022-12-15T15:26:46.810Z,69.80
2022-12-15T15:29:36.550Z,70.00
2022-12-15T15:32:22.884Z,70.29
2022-12-15T15:34:49.686Z,70.13
2022-12-15T15:37:23.478Z,70.64
2022-12-15T15:39:51.623Z,70.41
2022-12-15T15:42:18.116Z,70.57
2022-12-15T15:44:44.956Z,70.84
2022-12-15T15:47:21.753Z,70.96
2022-12-15T15:49:48.391Z,71.72
2022-12-15T15:52:14.760Z,71.58
2022-12-15T15:54:41.319Z,71.39
2022-12-15T15:57:19.452Z,71.28
2022-12-15T15:59:46.116Z,71.48
2022-12-15T16:02:14.132Z,72.13
2022-12-15T16:04:41.686Z,72.17
2022-12-15T16:07:28.737Z,72.05
2022-12-15T16:09:55.631Z,72.08
2022-12-15T16:12:31.563Z,72.26
2022-12-15T16:14:57.856Z,72.42
2022-12-15T16:17:24.271Z,72.23
2022-12-15T16:19:50.844Z,72.13
2022-12-15T16:22:21.209Z,72.59
2022-12-15T16:24:48.159Z,72.28
2022-12-15T16:27:15.592Z,72.51
2022-12-15T16:29:42.646Z,72.79
2022-12-15T16:32:10.705Z,72.98
2022-12-15T16:34:37.124Z,72.60
2022-12-15T16:37:04.250Z,72.54
2022-12-15T16:39:35.187Z,72.91
2022-12-15T16:42:02.137Z,72.82
2022-12-15T16:44:29.555Z,72.41
2022-12-15T16:46:56.363Z,72.72
2022-12-15T16:49:23.039Z,73.10
2022-12-15T16:51:52.292Z,73.18
2022-12-15T16:54:25.321Z,73.33
2022-12-15T16:56:53.598Z,73.83
2022-12-15T16:59:38.108Z,73.27
2022-12-15T17:02:27.229Z,73.11
2022-12-15T17:04:54.209Z,73.10
2022-12-15T17:07:21.668Z,73.27
2022-12-15T17:09:50.441Z,73.19
2022-12-15T17:12:17.969Z,72.97
2022-12-15T17:14:44.694Z,72.57
2022-12-15T17:17:16.702Z,73.03
2022-12-15T17:19:57.875Z,73.11
2022-12-15T17:22:30.071Z,73.38
2022-12-15T17:24:56.514Z,73.34
2022-12-15T17:27:26.588Z,73.46
2022-12-15T17:29:53.216Z,73.23
2022-12-15T17:32:19.826Z,73.85
2022-12-15T17:34:46.386Z,73.46
2022-12-15T17:37:14.294Z,73.90
2022-12-15T17:39:41.128Z,73.87
2022-12-15T17:42:19.787Z,73.33
2022-12-15T17:44:48.081Z,73.46
2022-12-15T17:47:16.233Z,73.56
2022-12-15T17:49:43.058Z,73.37
2022-12-15T17:52:35.871Z,72.90
2022-12-15T17:55:04.417Z,73.16
2022-12-15T17:57:31.671Z,73.72
2022-12-15T17:59:58.681Z,73.50
2022-12-15T18:02:25.508Z,73.78
2022-12-15T18:04:52.244Z,73.71
2022-12-15T18:07:21.568Z,73.51
2022-12-15T18:09:49.956Z,73.84
2022-12-15T18:12:25.140Z,73.60
2022-12-15T18:14:51.396Z,73.33
2022-12-15T18:17:18.051Z,73.36
2022-12-15T18:19:44.533Z,73.10
2022-12-15T18:22:14.220Z,73.24
2022-12-15T18:24:40.805Z,73.31
2022-12-15T18:27:22.104Z,73.29
2022-12-15T18:29:48.832Z,73.08
2022-12-15T18:32:16.361Z,73.70
2022-12-15T18:34:43.000Z,73.75
2022-12-15T18:37:21.253Z,73.67
2022-12-15T18:39:48.020Z,73.61
2022-12-15T18:42:16.516Z,74.06
2022-12-15T18:44:48.096Z,74.07
2022-12-15T18:47:19.918Z,74.61
2022-12-15T18:49:46.957Z,74.21
2022-12-15T18:52:17.804Z,73.94
2022-12-15T18:54:44.409Z,73.72
2022-12-15T18:57:25.526Z,73.84
2022-12-15T18:59:52.321Z,73.74
2022-12-15T19:02:18.713Z,73.34
2022-12-15T19:04:45.245Z,73.36
2022-12-15T19:07:11.923Z,73.82
2022-12-15T19:09:38.517Z,74.24
2022-12-15T19:12:05.004Z,74.54
2022-12-15T19:14:31.376Z,74.24
2022-12-15T19:16:57.861Z,74.32
2022-12-15T19:19:24.277Z,74.33
2022-12-15T19:21:50.995Z,74.35
2022-12-15T19:24:19.524Z,74.19
2022-12-15T19:26:46.100Z,73.91
2022-12-15T19:29:21.977Z,73.82
2022-12-15T19:31:48.403Z,73.62
2022-12-15T19:34:14.835Z,73.96
2022-12-15T19:36:41.335Z,74.18
2022-12-15T19:39:17.419Z,74.00
2022-12-15T19:41:43.909Z,73.96
2022-12-15T19:44:14.862Z,73.76
2022-12-15T19:46:42.415Z,73.65
2022-12-15T19:49:09.261Z,73.69
2022-12-15T19:51:36.504Z,73.34
2022-12-15T19:54:04.199Z,73.45
2022-12-15T19:56:31.061Z,73.33
2022-12-15T19:58:57.807Z,73.36
2022-12-15T20:01:24.445Z,73.86
2022-12-15T20:03:52.209Z,73.60
2022-12-15T20:06:22.916Z,73.52
2022-12-15T20:08:52.181Z,73.21
2022-12-15T20:11:27.480Z,73.17
2022-12-15T20:13:54.557Z,73.13
2022-12-15T20:16:21.636Z,73.30
2022-12-15T20:18:54.040Z,73.38
2022-12-15T20:21:22.913Z,73.62
2022-12-15T20:23:59.591Z,73.66
2022-12-15T20:26:28.229Z,73.65
2022-12-15T20:28:55.379Z,73.51
2022-12-15T20:31:23.638Z,73.28
2022-12-15T20:33:50.331Z,73.11
2022-12-15T20:36:23.985Z,73.56
2022-12-15T20:38:51.356Z,73.77
2022-12-15T20:41:20.799Z,73.66
2022-12-15T20:43:47.788Z,73.26
2022-12-15T20:46:19.121Z,73.56
2022-12-15T20:48:45.678Z,72.88
2022-12-15T20:51:27.268Z,73.02
2022-12-15T20:53:56.195Z,72.72
2022-12-15T20:56:23.735Z,72.56
2022-12-15T20:58:51.861Z,72.58
2022-12-15T21:01:37.539Z,72.93
2022-12-15T21:04:18.319Z,73.24
2022-12-15T21:06:46.645Z,73.06
2022-12-15T21:09:16.609Z,73.22
2022-12-15T21:11:43.531Z,73.32
2022-12-15T21:14:16.697Z,73.57
2022-12-15T21:16:43.441Z,73.67
2022-12-15T21:19:20.256Z,73.14
2022-12-15T21:21:51.926Z,72.96
2022-12-15T21:24:24.548Z,72.87
2022-12-15T21:26:51.964Z,72.35
2022-12-15T21:29:24.188Z,72.48
2022-12-15T21:31:50.525Z,72.95
2022-12-15T21:34:17.318Z,72.94
2022-12-15T21:36:47.771Z,73.19
2022-12-15T21:39:26.688Z,73.22
2022-12-15T21:41:55.126Z,73.49
2022-12-15T21:44:21.782Z,73.41
2022-12-15T21:46:48.276Z,73.64
2022-12-15T21:49:16.162Z,73.48
2022-12-15T21:51:45.929Z,73.21
2022-12-15T21:54:30.948Z,73.28
2022-12-15T21:56:59.444Z,73.02
2022-12-15T21:59:29.178Z,73.02
2022-12-15T22:01:55.774Z,73.21
2022-12-15T22:04:31.331Z,73.02
2022-12-15T22:06:57.948Z,73.17
2022-12-15T22:09:24.489Z,73.18
2022-12-15T22:11:53.964Z,72.99
2022-12-15T22:14:31.612Z,72.85
2022-12-15T22:17:00.038Z,73.10
2022-12-15T22:19:26.590Z,73.38
2022-12-15T22:21:52.967Z,72.98
2022-12-15T22:24:20.011Z,72.64
2022-12-15T22:26:47.946Z,72.61
2022-12-15T22:29:23.840Z,72.39
2022-12-15T22:31:50.630Z,72.08
2022-12-15T22:34:20.654Z,72.94
2022-12-15T22:36:47.993Z,72.39
2022-12-15T22:39:14.595Z,72.28
2022-12-15T22:41:43.483Z,72.35
2022-12-15T22:44:17.349Z,72.58
2022-12-15T22:46:44.069Z,72.60
2022-12-15T22:49:22.302Z,72.87
2022-12-15T22:51:48.848Z,72.61
2022-12-15T22:54:18.461Z,72.43
2022-12-15T22:56:46.668Z,72.54
2022-12-15T22:59:20.987Z,72.53
2022-12-15T23:01:47.607Z,72.47
2022-12-15T23:04:14.153Z,72.31
2022-12-15T23:06:40.634Z,72.35
2022-12-15T23:09:07.226Z,72.62
2022-12-15T23:11:33.631Z,72.86
2022-12-15T23:14:00.085Z,72.69
2022-12-15T23:16:26.602Z,72.39
2022-12-15T23:18:55.254Z,72.47
2022-12-15T23:21:23.415Z,72.24
2022-12-15T23:23:50.321Z,72.54
2022-12-15T23:26:18.615Z,72.74
2022-12-15T23:28:45.243Z,72.87
2022-12-15T23:31:11.986Z,72.49
2022-12-15T23:33:38.450Z,72.63
2022-12-15T23:36:05.724Z,72.73
2022-12-15T23:38:32.189Z,72.77
2022-12-15T23:40:59.169Z,73.00
2022-12-15T23:43:27.736Z,73.25
2022-12-15T23:46:00.275Z,72.70
2022-12-15T23:48:31.807Z,72.47
2022-12-15T23:51:16.220Z,72.49
2022-12-15T23:53:44.514Z,72.47
2022-12-15T23:56:16.685Z,72.82
2022-12-15T23:58:44.554Z,72.26
